Time;durP1;ratioP1;P1;durP2;ratioP2;P2;SDS_P1;SDS_P2;PMS_P1;PMS_P2;Temp;Humidity;BMP_temperature;BMP_pressure;BME280_temperature;BME280_humidity;BME280_pressure;Samples;Min_cycle;Max_cycle;Signal;HPM_P1;HPM_P2
2022/09/30 00:00:42;;;;;;;15.43;6.68;;;;;;;;;;5033134;28;20115;-77
2022/09/30 00:03:08;;;;;;;10.10;6.10;;;;;;;;;;5031736;28;20394;-75
2022/09/30 00:05:34;;;;;;;15.18;6.47;;;;;;;;;;5032406;28;20393;-76
2022/09/30 00:08:00;;;;;;;10.50;6.10;;;;;;;;;;5033079;28;20513;-76
2022/09/30 00:10:26;;;;;;;9.38;6.65;;;;;;;;;;5033193;28;20037;-77
2022/09/30 00:12:52;;;;;;;9.45;6.32;;;;;;;;;;5032785;28;20028;-76
2022/09/30 00:15:19;;;;;;;13.38;6.80;;;;;;;;;;5046853;22;20462;-75
2022/09/30 00:17:45;;;;;;;10.23;6.72;;;;;;;;;;5056177;28;20060;-73
2022/09/30 00:20:11;;;;;;;8.40;6.82;;;;;;;;;;5057531;28;20014;-73
2022/09/30 00:22:37;;;;;;;15.20;7.35;;;;;;;;;;5057737;28;20048;-75
2022/09/30 00:25:03;;;;;;;13.00;7.35;;;;;;;;;;5057005;28;20104;-72
2022/09/30 00:27:29;;;;;;;10.75;7.30;;;;;;;;;;5035717;28;20034;-73
2022/09/30 00:29:55;;;;;;;11.73;7.80;;;;;;;;;;5019476;28;20054;-75
2022/09/30 00:32:21;;;;;;;12.75;7.68;;;;;;;;;;5014370;28;20034;-74
2022/09/30 00:34:47;;;;;;;11.02;7.57;;;;;;;;;;5012613;28;20022;-75
2022/09/30 00:37:14;;;;;;;11.05;7.72;;;;;;;;;;5012267;28;20022;-75
2022/09/30 00:39:40;;;;;;;12.18;8.38;;;;;;;;;;5012597;28;20098;-75
2022/09/30 00:42:10;;;;;;;14.05;8.43;;;;;;;;;;5012933;28;20121;-77
2022/09/30 00:44:51;;;;;;;15.18;8.43;;;;;;;;;;5012697;28;20033;-76
2022/09/30 00:47:17;;;;;;;11.05;8.20;;;;;;;;;;5010744;28;20029;-75
2022/09/30 00:49:43;;;;;;;11.10;8.27;;;;;;;;;;5011533;28;20437;-75
2022/09/30 00:52:09;;;;;;;10.32;8.27;;;;;;;;;;5010163;28;20037;-75
2022/09/30 00:54:35;;;;;;;14.15;9.25;;;;;;;;;;5009888;28;20383;-76
2022/09/30 00:57:02;;;;;;;11.00;8.80;;;;;;;;;;5011046;28;20048;-75
2022/09/30 00:59:28;;;;;;;13.23;9.27;;;;;;;;;;5013066;28;20032;-75
2022/09/30 01:01:54;;;;;;;14.55;9.15;;;;;;;;;;5011942;28;20038;-75
2022/09/30 01:04:22;;;;;;;12.18;8.68;;;;;;;;;;5011797;28;20121;-76
2022/09/30 01:06:48;;;;;;;13.38;9.93;;;;;;;;;;5011806;28;20030;-76
2022/09/30 01:09:14;;;;;;;14.40;9.80;;;;;;;;;;5012571;28;20038;-76
2022/09/30 01:11:41;;;;;;;14.10;9.70;;;;;;;;;;5011749;28;20101;-76
2022/09/30 01:14:09;;;;;;;16.23;10.13;;;;;;;;;;5012278;28;20029;-76
2022/09/30 01:16:38;;;;;;;13.75;10.45;;;;;;;;;;5028659;28;20061;-73
2022/09/30 01:19:16;;;;;;;14.82;10.30;;;;;;;;;;5025224;28;20041;-77
2022/09/30 01:22:01;;;;;;;16.15;10.68;;;;;;;;;;5015477;28;20061;-75
2022/09/30 01:24:36;;;;;;;14.85;11.27;;;;;;;;;;5015939;28;20030;-75
2022/09/30 01:27:05;;;;;;;13.25;9.90;;;;;;;;;;5015467;28;20026;-74
2022/09/30 01:29:37;;;;;;;15.15;10.43;;;;;;;;;;5015764;28;20103;-75
2022/09/30 01:32:03;;;;;;;19.00;11.88;;;;;;;;;;5015990;28;20030;-75
2022/09/30 01:34:52;;;;;;;13.60;10.55;;;;;;;;;;5018888;28;20162;-77
2022/09/30 01:37:18;;;;;;;17.33;12.25;;;;;;;;;;5005096;28;20092;-76
2022/09/30 01:40:07;;;;;;;17.23;11.75;;;;;;;;;;5014192;28;20030;-76
2022/09/30 01:42:48;;;;;;;19.45;12.35;;;;;;;;;;5016464;28;20061;-76
2022/09/30 01:45:14;;;;;;;19.08;11.75;;;;;;;;;;5017069;28;20022;-76
2022/09/30 01:47:49;;;;;;;17.15;12.13;;;;;;;;;;5016178;28;20570;-76
2022/09/30 01:50:18;;;;;;;18.30;12.73;;;;;;;;;;5018978;28;20104;-76
2022/09/30 01:52:48;;;;;;;19.02;14.30;;;;;;;;;;5019214;28;20061;-76
2022/09/30 01:55:26;;;;;;;17.17;12.80;;;;;;;;;;5019731;28;20034;-75
2022/09/30 01:57:55;;;;;;;19.73;13.48;;;;;;;;;;5018125;28;20048;-75
2022/09/30 02:00:22;;;;;;;18.15;12.68;;;;;;;;;;5017549;28;20414;-76
2022/09/30 02:02:56;;;;;;;18.85;13.75;;;;;;;;;;5020141;28;20133;-76
2022/09/30 02:05:33;;;;;;;19.13;14.00;;;;;;;;;;5016772;28;20052;-76
2022/09/30 02:08:19;;;;;;;19.92;13.20;;;;;;;;;;5015258;28;20026;-75
2022/09/30 02:10:47;;;;;;;18.13;13.98;;;;;;;;;;5000545;28;20061;-75
2022/09/30 02:13:19;;;;;;;20.30;14.00;;;;;;;;;;5015233;28;20050;-76
2022/09/30 02:15:49;;;;;;;20.13;14.23;;;;;;;;;;5013611;28;20030;-74
2022/09/30 02:18:18;;;;;;;17.38;13.32;;;;;;;;;;5013864;28;20032;-74
2022/09/30 02:20:44;;;;;;;18.77;12.75;;;;;;;;;;5015235;28;20053;-74
2022/09/30 02:23:13;;;;;;;20.88;14.65;;;;;;;;;;5015445;28;20033;-74
2022/09/30 02:25:42;;;;;;;17.08;13.63;;;;;;;;;;5015246;28;20064;-74
2022/09/30 02:28:10;;;;;;;15.27;11.57;;;;;;;;;;5014006;28;20470;-74
2022/09/30 02:30:37;;;;;;;16.88;12.63;;;;;;;;;;5016279;28;20029;-75
2022/09/30 02:33:07;;;;;;;16.38;12.52;;;;;;;;;;5016682;28;20165;-75
2022/09/30 02:35:38;;;;;;;18.02;12.95;;;;;;;;;;5017377;28;20022;-77
2022/09/30 02:38:08;;;;;;;17.55;12.10;;;;;;;;;;5020345;28;20026;-78
2022/09/30 02:40:47;;;;;;;16.88;11.82;;;;;;;;;;5019235;28;20072;-76
2022/09/30 02:43:13;;;;;;;15.88;11.00;;;;;;;;;;5021907;28;20032;-76
2022/09/30 02:45:49;;;;;;;15.80;11.00;;;;;;;;;;5026041;28;20029;-75
2022/09/30 02:48:23;;;;;;;17.42;11.20;;;;;;;;;;5027589;28;20056;-76
2022/09/30 02:50:49;;;;;;;17.50;12.35;;;;;;;;;;5030329;28;20045;-76
2022/09/30 02:53:18;;;;;;;14.73;11.50;;;;;;;;;;5004366;28;20058;-76
2022/09/30 02:55:51;;;;;;;15.00;11.43;;;;;;;;;;5015462;28;20489;-76
2022/09/30 02:58:20;;;;;;;17.35;12.55;;;;;;;;;;5014604;28;20467;-77
2022/09/30 03:00:46;;;;;;;15.88;11.57;;;;;;;;;;4997462;28;20030;-76
2022/09/30 03:03:17;;;;;;;15.45;12.25;;;;;;;;;;5015548;28;20025;-76
2022/09/30 03:05:44;;;;;;;25.40;14.43;;;;;;;;;;5016064;28;20030;-77
2022/09/30 03:08:10;;;;;;;20.17;13.95;;;;;;;;;;5018886;28;20399;-76
2022/09/30 03:10:36;;;;;;;19.83;13.00;;;;;;;;;;5014419;28;20088;-77
2022/09/30 03:13:21;;;;;;;18.08;13.77;;;;;;;;;;5014037;28;20100;-75
2022/09/30 03:15:56;;;;;;;25.77;14.25;;;;;;;;;;5013895;28;20054;-75
2022/09/30 03:18:25;;;;;;;20.05;13.35;;;;;;;;;;5014256;28;20479;-75
2022/09/30 03:20:51;;;;;;;18.73;14.18;;;;;;;;;;5014143;28;20052;-75
2022/09/30 03:23:23;;;;;;;21.05;13.80;;;;;;;;;;5014633;28;20364;-75
2022/09/30 03:26:08;;;;;;;20.98;15.70;;;;;;;;;;5014120;28;20029;-75
2022/09/30 03:28:35;;;;;;;20.80;15.30;;;;;;;;;;5014144;28;20053;-75
2022/09/30 03:31:25;;;;;;;20.40;14.63;;;;;;;;;;5013722;28;20030;-76
2022/09/30 03:33:52;;;;;;;20.50;14.10;;;;;;;;;;5003119;28;20053;-75
2022/09/30 03:36:18;;;;;;;25.70;14.23;;;;;;;;;;5012625;28;20049;-74
2022/09/30 03:39:07;;;;;;;23.00;15.70;;;;;;;;;;5013308;28;20038;-76
2022/09/30 03:41:38;;;;;;;21.10;14.93;;;;;;;;;;5012610;28;20056;-73
2022/09/30 03:44:14;;;;;;;20.60;14.70;;;;;;;;;;5016940;28;20576;-74
2022/09/30 03:46:52;;;;;;;23.45;14.90;;;;;;;;;;5029954;28;20033;-76
2022/09/30 03:49:22;;;;;;;22.50;15.82;;;;;;;;;;5024036;28;20026;-76
2022/09/30 03:51:48;;;;;;;21.40;15.68;;;;;;;;;;5017373;28;20026;-75
2022/09/30 03:54:15;;;;;;;21.08;16.45;;;;;;;;;;5012721;28;20478;-75
2022/09/30 03:56:42;;;;;;;22.55;15.57;;;;;;;;;;5014094;28;20331;-76
2022/09/30 03:59:12;;;;;;;27.05;16.25;;;;;;;;;;5012475;28;20026;-75
2022/09/30 04:01:38;;;;;;;19.92;14.90;;;;;;;;;;5013463;28;20026;-75
2022/09/30 04:04:04;;;;;;;20.73;16.27;;;;;;;;;;4995830;28;20072;-75
2022/09/30 04:06:30;;;;;;;28.40;16.73;;;;;;;;;;4995377;28;20121;-75
2022/09/30 04:08:56;;;;;;;20.88;16.60;;;;;;;;;;5013407;28;20217;-75
2022/09/30 04:11:22;;;;;;;25.90;17.17;;;;;;;;;;5013225;28;20019;-75
2022/09/30 04:13:48;;;;;;;23.75;16.77;;;;;;;;;;4995501;28;20331;-74
2022/09/30 04:16:14;;;;;;;25.83;17.80;;;;;;;;;;4994971;28;20371;-75
2022/09/30 04:18:41;;;;;;;23.75;17.48;;;;;;;;;;5013010;28;20037;-73
2022/09/30 04:21:08;;;;;;;23.42;16.88;;;;;;;;;;5013766;28;20096;-75
2022/09/30 04:23:35;;;;;;;24.17;16.27;;;;;;;;;;4996962;28;20095;-75
2022/09/30 04:26:01;;;;;;;26.00;17.42;;;;;;;;;;4995260;28;20103;-75
2022/09/30 04:28:27;;;;;;;31.98;17.88;;;;;;;;;;5014818;28;20029;-74
2022/09/30 04:30:53;;;;;;;23.42;16.45;;;;;;;;;;5019471;28;20030;-74
2022/09/30 04:33:19;;;;;;;25.42;17.98;;;;;;;;;;5016363;28;20036;-75
2022/09/30 04:35:45;;;;;;;24.15;17.50;;;;;;;;;;5019377;28;20052;-75
2022/09/30 04:38:11;;;;;;;21.65;16.60;;;;;;;;;;5034075;28;20034;-75
2022/09/30 04:40:38;;;;;;;25.65;16.23;;;;;;;;;;5017091;28;20136;-75
2022/09/30 04:43:05;;;;;;;25.25;16.98;;;;;;;;;;5013442;28;20026;-76
2022/09/30 04:45:31;;;;;;;28.60;17.77;;;;;;;;;;4995248;28;20029;-75
2022/09/30 04:47:57;;;;;;;28.67;17.30;;;;;;;;;;5014439;28;20030;-75
2022/09/30 04:50:22;;;;;;;25.48;16.80;;;;;;;;;;5013464;28;20029;-75
2022/09/30 04:52:48;;;;;;;23.13;16.75;;;;;;;;;;5020546;28;20076;-76
2022/09/30 04:55:14;;;;;;;27.25;17.10;;;;;;;;;;5013477;28;20053;-74
2022/09/30 04:57:43;;;;;;;24.92;16.75;;;;;;;;;;5012752;28;20026;-74
2022/09/30 05:00:10;;;;;;;24.65;17.55;;;;;;;;;;5019293;28;20402;-74
2022/09/30 05:02:36;;;;;;;27.38;17.48;;;;;;;;;;5022634;28;20045;-74
2022/09/30 05:05:02;;;;;;;24.08;17.23;;;;;;;;;;5005537;28;20014;-71
2022/09/30 05:07:28;;;;;;;20.75;16.02;;;;;;;;;;5018583;28;20067;-75
2022/09/30 05:09:54;;;;;;;24.13;17.50;;;;;;;;;;5017759;28;20053;-72
2022/09/30 05:12:20;;;;;;;24.65;17.65;;;;;;;;;;5034488;28;20049;-72
2022/09/30 05:14:46;;;;;;;23.02;15.50;;;;;;;;;;5018111;28;20045;-72
2022/09/30 05:17:12;;;;;;;23.90;16.58;;;;;;;;;;5028179;28;20402;-76
2022/09/30 05:19:38;;;;;;;27.45;17.55;;;;;;;;;;5013761;28;20108;-75
2022/09/30 05:22:04;;;;;;;23.73;17.48;;;;;;;;;;5011280;28;20068;-76
2022/09/30 05:24:30;;;;;;;24.15;17.88;;;;;;;;;;5011667;28;20424;-74
2022/09/30 05:26:56;;;;;;;32.00;19.75;;;;;;;;;;4994783;28;20041;-76
2022/09/30 05:29:22;;;;;;;26.13;17.80;;;;;;;;;;5012544;28;20029;-73
2022/09/30 05:31:48;;;;;;;22.67;16.95;;;;;;;;;;5013988;28;20109;-75
2022/09/30 05:34:15;;;;;;;26.27;17.95;;;;;;;;;;5027545;28;20022;-73
2022/09/30 05:36:42;;;;;;;25.88;18.02;;;;;;;;;;5000373;28;20044;-74
2022/09/30 05:39:08;;;;;;;24.90;17.98;;;;;;;;;;5012447;28;20030;-75
2022/09/30 05:41:34;;;;;;;26.45;18.23;;;;;;;;;;5013311;28;20023;-76
2022/09/30 05:44:01;;;;;;;29.92;18.92;;;;;;;;;;5012780;28;20037;-75
2022/09/30 05:46:27;;;;;;;23.25;17.15;;;;;;;;;;5012624;28;20109;-75
2022/09/30 05:48:53;;;;;;;25.58;18.40;;;;;;;;;;4996745;28;20053;-74
2022/09/30 05:51:20;;;;;;;30.70;18.85;;;;;;;;;;5012794;28;20422;-75
2022/09/30 05:53:46;;;;;;;26.38;18.02;;;;;;;;;;5012111;28;20079;-74
2022/09/30 05:56:12;;;;;;;22.92;16.60;;;;;;;;;;5012029;28;20099;-77
2022/09/30 05:58:39;;;;;;;23.27;16.45;;;;;;;;;;4996499;28;20018;-77
2022/09/30 06:01:07;;;;;;;29.60;18.17;;;;;;;;;;5000880;28;20022;-76
2022/09/30 06:03:33;;;;;;;27.08;19.08;;;;;;;;;;5005379;28;20383;-74
2022/09/30 06:05:59;;;;;;;31.75;19.70;;;;;;;;;;5021448;28;20032;-75
2022/09/30 06:08:25;;;;;;;30.75;19.73;;;;;;;;;;5020271;28;20076;-76
2022/09/30 06:10:51;;;;;;;31.88;20.92;;;;;;;;;;5022159;28;20030;-71
2022/09/30 06:13:18;;;;;;;28.08;19.40;;;;;;;;;;5021510;28;20029;-74
2022/09/30 06:18:17;;;;;;;27.83;19.02;;;;;;;;;;5017001;28;20042;-77
2022/09/30 06:20:43;;;;;;;28.15;19.15;;;;;;;;;;5021242;28;20115;-77
2022/09/30 06:23:09;;;;;;;35.03;19.42;;;;;;;;;;5021826;28;20026;-74
2022/09/30 06:25:35;;;;;;;34.72;19.42;;;;;;;;;;5018007;28;20041;-75
2022/09/30 06:28:01;;;;;;;31.80;19.17;;;;;;;;;;5016820;28;20104;-76
2022/09/30 06:30:27;;;;;;;30.45;19.60;;;;;;;;;;5015968;28;20022;-75
2022/09/30 06:32:55;;;;;;;29.35;18.30;;;;;;;;;;5017738;28;20402;-74
2022/09/30 06:35:23;;;;;;;26.48;17.83;;;;;;;;;;5019305;28;20041;-76
2022/09/30 06:37:52;;;;;;;31.40;18.38;;;;;;;;;;5021768;28;20025;-75
2022/09/30 06:40:20;;;;;;;27.85;18.33;;;;;;;;;;5016819;28;20025;-76
2022/09/30 06:42:47;;;;;;;28.23;19.65;;;;;;;;;;5016530;28;20034;-77
2022/09/30 06:45:13;;;;;;;27.17;18.80;;;;;;;;;;5016167;28;20018;-76
2022/09/30 06:47:39;;;;;;;26.52;18.10;;;;;;;;;;5017178;28;20041;-76
2022/09/30 06:50:05;;;;;;;22.23;16.63;;;;;;;;;;5015827;28;20030;-76
2022/09/30 06:52:31;;;;;;;29.95;16.13;;;;;;;;;;5016540;28;20471;-76
2022/09/30 06:54:57;;;;;;;26.35;17.15;;;;;;;;;;5016038;28;20053;-76
2022/09/30 06:57:25;;;;;;;22.75;15.80;;;;;;;;;;5015876;28;20497;-76
2022/09/30 06:59:51;;;;;;;22.65;16.13;;;;;;;;;;5016368;28;20026;-75
2022/09/30 07:02:18;;;;;;;25.70;16.17;;;;;;;;;;5018272;28;20029;-76
2022/09/30 07:04:44;;;;;;;22.25;15.32;;;;;;;;;;5018492;28;20040;-77
2022/09/30 07:07:10;;;;;;;26.42;15.65;;;;;;;;;;5022313;28;20022;-75
2022/09/30 07:09:36;;;;;;;21.98;14.55;;;;;;;;;;5022760;28;20053;-75
2022/09/30 07:12:03;;;;;;;22.63;15.20;;;;;;;;;;5018958;28;20033;-75
2022/09/30 07:14:30;;;;;;;23.30;15.27;;;;;;;;;;5019781;28;20096;-76
2022/09/30 07:16:56;;;;;;;20.50;15.27;;;;;;;;;;5017561;28;20368;-76
2022/09/30 07:19:22;;;;;;;20.73;14.80;;;;;;;;;;5018797;28;20030;-76
2022/09/30 07:21:48;;;;;;;24.90;14.95;;;;;;;;;;5016827;28;20033;-78
2022/09/30 07:24:14;;;;;;;22.10;15.00;;;;;;;;;;5017031;28;20022;-75
2022/09/30 07:26:40;;;;;;;26.17;14.38;;;;;;;;;;5015315;28;20408;-75
2022/09/30 07:29:06;;;;;;;20.45;13.85;;;;;;;;;;5016567;28;20026;-76
2022/09/30 07:31:33;;;;;;;30.83;15.32;;;;;;;;;;5015884;28;20029;-75
2022/09/30 07:34:00;;;;;;;23.08;15.02;;;;;;;;;;5015817;28;20033;-76
2022/09/30 07:36:28;;;;;;;26.88;14.18;;;;;;;;;;5016618;28;20036;-78
2022/09/30 07:38:54;;;;;;;27.92;14.90;;;;;;;;;;5024810;28;20014;-75
2022/09/30 07:41:25;;;;;;;20.98;13.90;;;;;;;;;;5033607;28;20029;-76
2022/09/30 07:43:51;;;;;;;27.85;14.18;;;;;;;;;;5033247;28;20036;-77
2022/09/30 07:46:24;;;;;;;20.08;13.52;;;;;;;;;;5024156;28;20026;-75
2022/09/30 07:48:53;;;;;;;20.08;13.80;;;;;;;;;;5017602;28;20034;-77
2022/09/30 07:51:21;;;;;;;18.15;12.95;;;;;;;;;;5018427;28;20479;-76
2022/09/30 07:53:49;;;;;;;23.48;13.23;;;;;;;;;;5017325;28;20517;-76
2022/09/30 07:56:15;;;;;;;19.20;12.07;;;;;;;;;;5014715;28;20026;-76
2022/09/30 07:58:42;;;;;;;21.25;13.13;;;;;;;;;;5015923;28;20030;-76
2022/09/30 08:01:09;;;;;;;19.45;12.15;;;;;;;;;;5014484;28;20036;-75
2022/09/30 08:03:38;;;;;;;22.17;12.73;;;;;;;;;;5015446;28;20506;-74
2022/09/30 08:06:15;;;;;;;16.27;10.50;;;;;;;;;;5016178;28;20069;-77
2022/09/30 08:08:40;;;;;;;16.45;10.73;;;;;;;;;;5017921;28;20482;-77
2022/09/30 08:11:07;;;;;;;21.65;11.63;;;;;;;;;;5017291;28;20087;-73
2022/09/30 08:13:33;;;;;;;15.90;10.38;;;;;;;;;;5015878;28;20093;-73
2022/09/30 08:15:59;;;;;;;13.35;9.82;;;;;;;;;;5013580;28;20037;-75
2022/09/30 08:18:26;;;;;;;16.00;9.77;;;;;;;;;;5013701;28;20378;-77
2022/09/30 08:20:52;;;;;;;15.45;9.45;;;;;;;;;;5014624;28;20022;-76
2022/09/30 08:23:18;;;;;;;18.48;9.38;;;;;;;;;;5016608;28;20030;-76
2022/09/30 08:25:44;;;;;;;12.00;7.68;;;;;;;;;;5017001;28;20088;-77
2022/09/30 08:28:10;;;;;;;13.70;7.88;;;;;;;;;;5016306;28;20052;-75
2022/09/30 08:30:37;;;;;;;10.50;6.90;;;;;;;;;;5012230;28;20387;-76
2022/09/30 08:33:03;;;;;;;11.30;6.10;;;;;;;;;;5011891;28;20447;-74
2022/09/30 08:35:29;;;;;;;11.95;6.28;;;;;;;;;;5013464;28;20032;-75
2022/09/30 08:37:55;;;;;;;10.07;6.28;;;;;;;;;;5014454;28;20026;-76
2022/09/30 08:40:23;;;;;;;10.10;6.53;;;;;;;;;;5017194;28;20068;-75
2022/09/30 08:43:13;;;;;;;10.88;6.68;;;;;;;;;;5014073;28;20026;-74
2022/09/30 08:45:47;;;;;;;9.85;5.78;;;;;;;;;;5014998;28;20096;-77
2022/09/30 08:48:28;;;;;;;9.07;4.60;;;;;;;;;;5012119;28;20557;-75
2022/09/30 08:51:06;;;;;;;9.38;4.63;;;;;;;;;;5012869;28;20038;-75
2022/09/30 08:53:40;;;;;;;11.32;4.75;;;;;;;;;;5014376;28;20033;-74
2022/09/30 08:56:06;;;;;;;10.38;6.22;;;;;;;;;;5015890;28;20055;-74
2022/09/30 08:58:35;;;;;;;8.20;4.32;;;;;;;;;;5013872;28;20029;-76
2022/09/30 09:01:04;;;;;;;6.80;4.30;;;;;;;;;;5012344;28;20033;-76
2022/09/30 09:03:32;;;;;;;5.97;3.78;;;;;;;;;;5014056;28;20021;-75
2022/09/30 09:06:17;;;;;;;9.75;4.07;;;;;;;;;;5012283;28;20033;-78
2022/09/30 09:08:47;;;;;;;;;;;;;;;;;;5014136;28;20490;-75
2022/09/30 09:11:16;;;;;;;5.70;3.30;;;;;;;;;;5013948;28;19905;-76
2022/09/30 09:14:18;;;;;;;7.25;3.50;;;;;;;;;;5017342;28;20028;-73
2022/09/30 09:16:57;;;;;;;7.85;3.83;;;;;;;;;;4933935;29;20032;-75
2022/09/30 09:19:25;;;;;;;5.65;3.75;;;;;;;;;;5008432;28;20038;-75
2022/09/30 09:21:56;;;;;;;5.30;3.90;;;;;;;;;;5015674;28;20022;-77
2022/09/30 09:24:26;;;;;;;8.60;4.40;;;;;;;;;;5013897;28;20108;-74
2022/09/30 09:26:53;;;;;;;10.10;4.05;;;;;;;;;;5015195;28;20454;-74
2022/09/30 09:29:42;;;;;;;10.55;4.18;;;;;;;;;;5012759;28;20022;-73
2022/09/30 09:32:13;;;;;;;7.20;4.05;;;;;;;;;;5012122;28;20029;-75
2022/09/30 09:34:40;;;;;;;8.23;4.32;;;;;;;;;;5013033;28;20022;-76
2022/09/30 09:37:15;;;;;;;8.15;3.88;;;;;;;;;;5013199;28;20444;-75
2022/09/30 09:39:48;;;;;;;7.03;4.18;;;;;;;;;;5017135;28;20025;-76
2022/09/30 09:42:33;;;;;;;12.00;5.28;;;;;;;;;;5016115;28;20030;-75
2022/09/30 09:45:02;;;;;;;9.50;4.55;;;;;;;;;;5016585;28;20033;-74
2022/09/30 09:47:28;;;;;;;8.55;4.10;;;;;;;;;;5018174;28;20032;-74
2022/09/30 09:49:59;;;;;;;7.65;4.20;;;;;;;;;;5021509;28;20025;-78
2022/09/30 09:52:34;;;;;;;13.73;4.93;;;;;;;;;;5026425;28;20045;-73
2022/09/30 09:55:00;;;;;;;6.28;4.28;;;;;;;;;;5027889;28;20033;-75
2022/09/30 09:57:31;;;;;;;11.27;5.00;;;;;;;;;;5024761;28;20018;-75
2022/09/30 10:01:09;;;;;;;9.50;4.43;;;;;;;;;;5026944;28;20018;-76
2022/09/30 10:02:59;;;;;;;7.07;4.80;;;;;;;;;;5029197;28;20104;-73
2022/09/30 10:05:25;;;;;;;12.32;4.32;;;;;;;;;;5027227;28;20084;-75
2022/09/30 10:08:07;;;;;;;6.50;4.50;;;;;;;;;;5027180;28;20026;-76
2022/09/30 10:10:41;;;;;;;13.75;4.57;;;;;;;;;;5031929;28;20036;-76
2022/09/30 10:13:15;;;;;;;9.23;4.75;;;;;;;;;;5031496;28;20065;-77
2022/09/30 10:15:42;;;;;;;6.40;3.85;;;;;;;;;;5032701;28;20038;-75
2022/09/30 10:18:15;;;;;;;8.88;4.65;;;;;;;;;;5031372;28;20037;-75
2022/09/30 10:20:49;;;;;;;9.55;4.18;;;;;;;;;;5032710;28;20034;-82
2022/09/30 10:23:19;;;;;;;7.60;3.92;;;;;;;;;;5035739;28;20024;-78
2022/09/30 10:25:58;;;;;;;5.88;3.50;;;;;;;;;;5032576;28;20085;-77
2022/09/30 10:28:26;;;;;;;10.10;3.97;;;;;;;;;;5034568;28;20018;-77
2022/09/30 10:30:55;;;;;;;9.95;3.60;;;;;;;;;;5029045;28;20026;-77
2022/09/30 10:33:43;;;;;;;9.77;3.85;;;;;;;;;;5021110;28;20040;-76
2022/09/30 10:36:19;;;;;;;8.35;3.67;;;;;;;;;;5021396;28;20029;-75
2022/09/30 10:39:00;;;;;;;8.50;4.43;;;;;;;;;;5019222;28;20030;-76
2022/09/30 10:41:28;;;;;;;7.05;3.67;;;;;;;;;;5018961;28;20471;-75
2022/09/30 10:43:55;;;;;;;7.47;3.88;;;;;;;;;;5018854;28;20028;-74
2022/09/30 10:46:29;;;;;;;6.10;3.47;;;;;;;;;;5019286;28;20029;-76
2022/09/30 10:48:57;;;;;;;7.63;3.53;;;;;;;;;;5020741;28;20033;-76
2022/09/30 10:51:25;;;;;;;5.40;3.80;;;;;;;;;;5023563;28;20093;-76
2022/09/30 10:53:51;;;;;;;10.20;4.28;;;;;;;;;;5017917;28;20037;-77
2022/09/30 10:56:36;;;;;;;8.68;4.10;;;;;;;;;;5020194;28;20026;-76
2022/09/30 10:59:03;;;;;;;7.82;3.60;;;;;;;;;;5032310;28;20026;-74
2022/09/30 11:01:38;;;;;;;5.80;4.20;;;;;;;;;;5029049;28;20022;-73
2022/09/30 11:04:11;;;;;;;10.38;5.28;;;;;;;;;;5022502;28;20036;-75
2022/09/30 11:06:39;;;;;;;7.20;4.22;;;;;;;;;;5017263;28;20022;-75
2022/09/30 11:09:11;;;;;;;4.65;3.20;;;;;;;;;;5026420;28;20080;-75
2022/09/30 11:12:03;;;;;;;6.45;2.58;;;;;;;;;;5026103;28;20037;-74
2022/09/30 11:14:36;;;;;;;5.50;2.88;;;;;;;;;;5023873;28;20129;-76
2022/09/30 11:17:05;;;;;;;4.03;2.20;;;;;;;;;;5027184;28;20546;-75
2022/09/30 11:19:31;;;;;;;4.18;2.00;;;;;;;;;;5027936;28;20153;-76
2022/09/30 11:21:57;;;;;;;4.20;2.30;;;;;;;;;;5027509;28;20030;-77
2022/09/30 11:24:41;;;;;;;11.32;1.77;;;;;;;;;;5024077;28;20022;-74
2022/09/30 11:27:19;;;;;;;4.32;1.92;;;;;;;;;;5023215;28;20109;-77
2022/09/30 11:29:51;;;;;;;7.28;2.00;;;;;;;;;;5018011;28;20065;-75
2022/09/30 11:32:23;;;;;;;3.20;1.52;;;;;;;;;;5017430;28;20041;-77
2022/09/30 11:34:56;;;;;;;4.40;1.80;;;;;;;;;;5018467;28;20022;-77
2022/09/30 11:37:31;;;;;;;4.47;1.60;;;;;;;;;;5015637;28;20033;-75
2022/09/30 11:39:56;;;;;;;;;;;;;;;;;;5017010;28;20041;-77
2022/09/30 11:42:29;;;;;;;2.75;1.60;;;;;;;;;;5015324;28;19913;-77
2022/09/30 11:45:03;;;;;;;6.47;2.00;;;;;;;;;;5016880;28;20034;-75
2022/09/30 11:47:32;;;;;;;4.07;2.15;;;;;;;;;;5016249;28;20109;-76
2022/09/30 11:50:05;;;;;;;5.15;2.17;;;;;;;;;;5014788;28;20538;-76
2022/09/30 11:52:31;;;;;;;3.50;1.73;;;;;;;;;;5014354;28;20018;-77
2022/09/30 11:55:05;;;;;;;3.90;1.70;;;;;;;;;;5014705;28;20195;-78
2022/09/30 11:57:37;;;;;;;18.27;11.65;;;;;;;;;;5015472;28;20022;-77
2022/09/30 12:00:14;;;;;;;5.22;1.90;;;;;;;;;;5017398;28;20104;-76
2022/09/30 12:02:52;;;;;;;5.45;1.83;;;;;;;;;;5017772;28;20073;-76
2022/09/30 12:05:24;;;;;;;3.83;1.80;;;;;;;;;;5018723;28;20030;-78
2022/09/30 12:07:57;;;;;;;3.03;1.55;;;;;;;;;;5016728;28;20037;-74
2022/09/30 12:10:34;;;;;;;4.50;1.65;;;;;;;;;;5015030;28;20472;-77
2022/09/30 12:13:06;;;;;;;2.72;1.65;;;;;;;;;;5013327;28;20062;-76
2022/09/30 12:15:32;;;;;;;6.65;1.95;;;;;;;;;;5013494;28;20029;-73
2022/09/30 12:18:01;;;;;;;3.60;2.63;;;;;;;;;;5050869;23;20095;-72
2022/09/30 12:20:27;;;;;;;7.55;1.90;;;;;;;;;;5035143;28;20064;-71
2022/09/30 12:23:16;;;;;;;3.25;2.13;;;;;;;;;;5033079;28;20033;-72
2022/09/30 12:25:46;;;;;;;2.92;1.48;;;;;;;;;;5022463;28;20037;-73
2022/09/30 12:31:35;;;;;;;6.43;1.58;;;;;;;;;;5034510;28;20024;-68
2022/09/30 12:34:06;;;;;;;5.97;2.08;;;;;;;;;;5033349;28;20040;-72
2022/09/30 12:36:42;;;;;;;5.97;2.30;;;;;;;;;;5032702;28;20037;-73
2022/09/30 12:39:27;;;;;;;5.47;2.95;;;;;;;;;;5033223;28;20025;-73
2022/09/30 12:42:02;;;;;;;5.13;2.70;;;;;;;;;;5033773;28;20057;-73
2022/09/30 12:44:48;;;;;;;5.40;3.03;;;;;;;;;;5033901;28;20465;-73
2022/09/30 12:47:19;;;;;;;7.00;3.00;;;;;;;;;;5034247;28;20032;-74
2022/09/30 12:49:45;;;;;;;8.25;3.63;;;;;;;;;;5029699;28;20087;-73
2022/09/30 12:52:17;;;;;;;5.63;3.63;;;;;;;;;;5018328;28;20064;-72
2022/09/30 12:54:55;;;;;;;5.25;3.20;;;;;;;;;;5035968;28;20032;-72
2022/09/30 12:57:26;;;;;;;8.68;3.55;;;;;;;;;;5034065;28;20104;-73
2022/09/30 12:59:54;;;;;;;4.72;3.53;;;;;;;;;;5034260;28;20032;-73
2022/09/30 13:02:26;;;;;;;6.85;3.65;;;;;;;;;;5038601;28;20077;-72
2022/09/30 13:04:52;;;;;;;4.88;3.33;;;;;;;;;;5037254;28;20038;-73
2022/09/30 13:07:21;;;;;;;5.68;3.85;;;;;;;;;;5039797;28;20489;-74
2022/09/30 13:09:57;;;;;;;7.93;3.90;;;;;;;;;;5039424;28;20079;-74
2022/09/30 13:12:28;;;;;;;9.48;3.67;;;;;;;;;;5043987;28;20039;-74
2022/09/30 13:15:15;;;;;;;7.22;3.80;;;;;;;;;;5031496;28;20033;-74
2022/09/30 13:17:41;;;;;;;7.05;3.20;;;;;;;;;;5025259;28;20101;-75
2022/09/30 13:20:27;;;;;;;5.53;3.72;;;;;;;;;;5038929;28;20104;-74
2022/09/30 13:22:54;;;;;;;11.60;3.65;;;;;;;;;;5036781;28;20089;-74
2022/09/30 13:25:20;;;;;;;5.25;3.30;;;;;;;;;;5035568;28;20045;-74
2022/09/30 13:28:12;;;;;;;4.13;3.28;;;;;;;;;;5035554;28;20032;-73
2022/09/30 13:30:39;;;;;;;6.75;3.20;;;;;;;;;;4982274;28;20033;-72
2022/09/30 13:33:25;;;;;;;5.18;3.28;;;;;;;;;;5035441;28;20484;-72
2022/09/30 13:35:51;;;;;;;6.38;3.22;;;;;;;;;;5035493;28;20022;-73
2022/09/30 13:38:19;;;;;;;5.32;3.15;;;;;;;;;;5017550;28;20033;-74
2022/09/30 13:41:04;;;;;;;4.40;2.38;;;;;;;;;;5035426;28;20427;-74
2022/09/30 13:43:42;;;;;;;4.30;2.80;;;;;;;;;;5035255;28;20029;-75
2022/09/30 13:46:23;;;;;;;3.60;2.53;;;;;;;;;;5036844;28;20395;-73
2022/09/30 13:48:56;;;;;;;6.38;3.15;;;;;;;;;;5035044;28;20025;-75
2022/09/30 13:51:24;;;;;;;4.53;3.10;;;;;;;;;;5038203;28;20026;-77
2022/09/30 13:53:51;;;;;;;4.90;3.45;;;;;;;;;;5036509;28;20087;-74
2022/09/30 13:56:19;;;;;;;5.55;3.78;;;;;;;;;;5034955;28;20097;-76
2022/09/30 13:58:54;;;;;;;6.97;4.05;;;;;;;;;;5035161;28;20035;-76
2022/09/30 14:01:27;;;;;;;6.70;3.90;;;;;;;;;;5035836;28;20028;-75
2022/09/30 14:04:06;;;;;;;9.27;4.05;;;;;;;;;;5017963;28;20021;-75
2022/09/30 14:06:45;;;;;;;8.63;4.82;;;;;;;;;;5037978;28;20040;-74
2022/09/30 14:09:10;;;;;;;9.75;4.93;;;;;;;;;;5037255;28;20448;-74
2022/09/30 14:11:42;;;;;;;8.52;4.15;;;;;;;;;;5037426;28;20068;-73
2022/09/30 14:14:22;;;;;;;5.45;3.50;;;;;;;;;;5036490;28;20125;-74
2022/09/30 14:16:54;;;;;;;5.40;3.22;;;;;;;;;;5017307;28;20120;-73
2022/09/30 14:19:31;;;;;;;4.60;3.15;;;;;;;;;;5035002;28;20097;-73
2022/09/30 14:21:58;;;;;;;8.88;4.38;;;;;;;;;;5035749;28;20458;-74
2022/09/30 14:24:26;;;;;;;6.35;4.35;;;;;;;;;;5033041;28;20033;-73
2022/09/30 14:27:10;;;;;;;9.00;4.35;;;;;;;;;;5033354;28;20036;-71
2022/09/30 14:29:36;;;;;;;;;;;;;;;;;;5033978;28;20472;-73
2022/09/30 14:32:10;;;;;;;9.15;4.68;;;;;;;;;;5033579;28;20137;-73
2022/09/30 14:34:36;;;;;;;6.93;5.20;;;;;;;;;;5015642;28;20022;-73
2022/09/30 14:37:03;;;;;;;15.57;5.70;;;;;;;;;;5034148;28;20263;-72
2022/09/30 14:39:31;;;;;;;11.50;4.50;;;;;;;;;;5036941;28;20025;-73
2022/09/30 14:42:02;;;;;;;9.55;5.20;;;;;;;;;;5020223;28;20494;-74
2022/09/30 14:44:30;;;;;;;16.38;6.43;;;;;;;;;;5036256;28;20055;-73
2022/09/30 14:47:00;;;;;;;12.82;6.60;;;;;;;;;;5033588;28;20029;-73
2022/09/30 14:49:31;;;;;;;9.18;6.10;;;;;;;;;;5033895;28;20112;-72
2022/09/30 14:51:59;;;;;;;11.63;7.00;;;;;;;;;;5034225;28;20025;-73